Aviation Digital Data Service (ADDS)

Output produced by METARs form (1430 UTC 22 May 2015)
found at http://aviationweather.gov/adds/metars/
 
KBTV 221120Z 2212/2312 33007G14KT P6SM FEW050 BKN100 
     FM221500 33012G20KT P6SM SCT080 
     FM230000 32009KT P6SM SCT080